createdAt,value
2023-02-24T00:02:05.560Z,95751.75
2023-02-24T00:04:35.789Z,95760.56
2023-02-24T00:07:02.971Z,95729.69
2023-02-24T00:09:31.123Z,95754.22
2023-02-24T00:12:10.153Z,95683.41
2023-02-24T00:14:39.552Z,95719.22
2023-02-24T00:17:09.830Z,95707.50
2023-02-24T00:19:37.783Z,95739.31
2023-02-24T00:22:07.177Z,95738.34
2023-02-24T00:24:33.925Z,95736.69
2023-02-24T00:27:02.346Z,95731.59
2023-02-24T00:29:30.050Z,95727.91
2023-02-24T00:32:01.736Z,95696.91
2023-02-24T00:34:31.033Z,95697.53
2023-02-24T00:36:58.165Z,95692.59
2023-02-24T00:39:33.495Z,95706.00
2023-02-24T00:42:06.727Z,95691.34
2023-02-24T00:44:44.955Z,95698.28
2023-02-24T00:47:12.592Z,95697.50
2023-02-24T00:49:42.431Z,95666.66
2023-02-24T00:52:15.511Z,95687.47
2023-02-24T00:54:44.552Z,95670.06
2023-02-24T00:57:11.502Z,95647.72
2023-02-24T00:59:39.368Z,95686.69
2023-02-24T01:02:11.421Z,95657.09
2023-02-24T01:04:38.721Z,95640.59
2023-02-24T01:07:10.738Z,95660.22
2023-02-24T01:09:39.587Z,95664.19
2023-02-24T01:12:38.240Z,95625.34
2023-02-24T01:15:11.213Z,95648.78
2023-02-24T01:17:39.264Z,95631.06
2023-02-24T01:20:18.245Z,95621.06
2023-02-24T01:22:51.234Z,95655.59
2023-02-24T01:25:20.283Z,95640.63
2023-02-24T01:27:47.125Z,95646.34
2023-02-24T01:30:15.862Z,95648.16
2023-02-24T01:32:43.771Z,95645.88
2023-02-24T01:35:12.078Z,95643.25
2023-02-24T01:37:39.250Z,95635.84
2023-02-24T01:40:20.548Z,95628.91
2023-02-24T01:42:47.690Z,95654.03
2023-02-24T01:45:21.447Z,95651.25
2023-02-24T01:47:49.140Z,95650.66
2023-02-24T01:50:17.751Z,95647.25
2023-02-24T01:52:49.092Z,95629.22
2023-02-24T01:55:40.758Z,95635.97
2023-02-24T01:58:15.507Z,95626.56
2023-02-24T02:00:46.801Z,95614.72
2023-02-24T02:03:35.182Z,95635.97
2023-02-24T02:06:11.128Z,95636.44
2023-02-24T02:08:40.852Z,95616.41
2023-02-24T02:11:11.376Z,95631.66
2023-02-24T02:13:43.166Z,95634.59
2023-02-24T02:16:34.837Z,95625.63
2023-02-24T02:19:25.666Z,95623.47
2023-02-24T02:22:05.880Z,95618.53
2023-02-24T02:25:07.229Z,95609.59
2023-02-24T02:27:45.387Z,95605.13
2023-02-24T02:30:15.001Z,95600.34
2023-02-24T02:32:52.530Z,95588.78
2023-02-24T02:35:26.550Z,95586.28
2023-02-24T02:38:04.158Z,95559.09
2023-02-24T02:40:52.507Z,95537.69
2023-02-24T02:43:39.630Z,95563.41
2023-02-24T02:46:34.658Z,95545.06
2023-02-24T02:49:17.973Z,95548.47
2023-02-24T02:51:53.933Z,95565.09
2023-02-24T02:54:32.627Z,95580.34
2023-02-24T02:57:08.606Z,95570.03
2023-02-24T02:59:41.641Z,95547.53
2023-02-24T03:02:13.118Z,95555.34
2023-02-24T03:04:44.877Z,95541.34
2023-02-24T03:07:16.725Z,95549.19
2023-02-24T03:09:50.541Z,95553.34
2023-02-24T03:12:22.305Z,95547.81
2023-02-24T03:14:56.725Z,95558.13
2023-02-24T03:17:26.814Z,95560.00
2023-02-24T03:20:01.760Z,95535.38
2023-02-24T03:22:35.997Z,95524.97
2023-02-24T03:25:05.178Z,95545.94
2023-02-24T03:27:49.572Z,95533.34
2023-02-24T03:30:26.971Z,95563.84
2023-02-24T03:33:05.237Z,95554.13
2023-02-24T03:35:42.071Z,95563.38
2023-02-24T03:38:10.167Z,95535.97
2023-02-24T03:40:39.291Z,95521.59
2023-02-24T03:43:16.914Z,95547.78
2023-02-24T03:45:46.381Z,95557.19
2023-02-24T03:48:13.305Z,95541.66
2023-02-24T03:50:42.271Z,95526.09
2023-02-24T03:53:51.912Z,95539.84
2023-02-24T03:56:45.891Z,95512.41
2023-02-24T03:59:33.423Z,95541.81
2023-02-24T04:02:17.699Z,95537.81
2023-02-24T04:05:24.035Z,95527.00
2023-02-24T04:08:08.669Z,95514.22
2023-02-24T04:10:53.803Z,95504.66
2023-02-24T04:13:36.144Z,95516.22
2023-02-24T04:16:36.361Z,95433.25
2023-02-24T04:19:09.178Z,95529.88
2023-02-24T04:21:39.998Z,95504.50
2023-02-24T04:24:11.926Z,95482.06
2023-02-24T04:26:40.591Z,95500.09
2023-02-24T04:29:09.785Z,95507.34
2023-02-24T04:31:39.021Z,95486.41
2023-02-24T04:34:09.456Z,95475.44
2023-02-24T04:36:38.642Z,95484.94
2023-02-24T04:39:07.158Z,95483.88
2023-02-24T04:41:35.795Z,95507.13
2023-02-24T04:44:02.391Z,95505.16
2023-02-24T04:46:32.361Z,95475.63
2023-02-24T04:49:00.377Z,95498.25
2023-02-24T04:51:27.000Z,95484.81
2023-02-24T04:53:55.399Z,95469.28
2023-02-24T04:56:22.445Z,95467.56
2023-02-24T04:58:49.112Z,95488.34
2023-02-24T05:01:15.706Z,95493.25
2023-02-24T05:03:43.331Z,95475.22
2023-02-24T05:06:16.111Z,95493.38
2023-02-24T05:08:43.620Z,95465.13
2023-02-24T05:11:16.187Z,95489.00
2023-02-24T05:13:45.812Z,95478.56
2023-02-24T05:16:14.191Z,95460.09
2023-02-24T05:18:40.919Z,95469.78
2023-02-24T05:21:29.138Z,95459.94
2023-02-24T05:23:58.284Z,95464.38
2023-02-24T05:26:25.804Z,95460.53
2023-02-24T05:28:56.423Z,95401.88
2023-02-24T05:31:28.934Z,95429.13
2023-02-24T05:34:01.432Z,95444.63
2023-02-24T05:36:32.393Z,95459.44
2023-02-24T05:38:59.542Z,95434.34
2023-02-24T05:41:35.634Z,95448.13
2023-02-24T05:44:09.243Z,95383.38
2023-02-24T05:46:39.699Z,95432.31
2023-02-24T05:49:14.212Z,95447.72
2023-02-24T05:51:43.496Z,95449.44
2023-02-24T05:54:13.333Z,95456.06
2023-02-24T05:56:44.769Z,95457.91
2023-02-24T05:59:18.147Z,95452.06
2023-02-24T06:01:47.647Z,95433.59
2023-02-24T06:04:33.547Z,95443.75
2023-02-24T06:07:03.677Z,95429.00
2023-02-24T06:09:30.273Z,95420.53
2023-02-24T06:11:56.881Z,95445.75
2023-02-24T06:14:24.526Z,95434.50
2023-02-24T06:16:51.360Z,95412.34
2023-02-24T06:19:17.910Z,95419.56
2023-02-24T06:21:44.507Z,95415.69
2023-02-24T06:24:18.279Z,95430.44
2023-02-24T06:26:45.815Z,95437.03
2023-02-24T06:29:14.853Z,95443.66
2023-02-24T06:31:43.162Z,95418.75
2023-02-24T06:34:10.887Z,95449.56
2023-02-24T06:36:38.113Z,95453.56
2023-02-24T06:39:08.209Z,95440.94
2023-02-24T06:41:37.888Z,95441.38
2023-02-24T06:44:04.712Z,95390.19
2023-02-24T06:46:31.948Z,95420.63
2023-02-24T06:48:58.617Z,95444.31
2023-02-24T06:51:30.057Z,95364.19
2023-02-24T06:53:59.398Z,95437.41
2023-02-24T06:56:27.597Z,95442.91
2023-02-24T06:58:56.329Z,95409.88
2023-02-24T07:01:26.119Z,95445.44
2023-02-24T07:04:07.366Z,95437.28
2023-02-24T07:06:38.186Z,95404.66
2023-02-24T07:09:10.757Z,95415.56
2023-02-24T07:11:41.437Z,95439.88
2023-02-24T07:14:11.224Z,95424.91
2023-02-24T07:16:41.471Z,95416.00
2023-02-24T07:19:13.836Z,95404.13
2023-02-24T07:21:59.725Z,95418.41
2023-02-24T07:24:36.119Z,95436.72
2023-02-24T07:27:10.878Z,95432.25
2023-02-24T07:29:38.380Z,95409.47
2023-02-24T07:32:09.073Z,95426.34
2023-02-24T07:34:39.928Z,95391.84
2023-02-24T07:37:08.495Z,95425.69
2023-02-24T07:39:37.032Z,95423.84
2023-02-24T07:42:05.420Z,95421.22
2023-02-24T07:44:44.563Z,95381.13
2023-02-24T07:47:11.249Z,95385.59
2023-02-24T07:49:40.910Z,95402.91
2023-02-24T07:52:08.405Z,95373.38
2023-02-24T07:54:35.050Z,95383.63
2023-02-24T07:57:01.726Z,95405.41
2023-02-24T07:59:32.405Z,95415.41
2023-02-24T08:02:00.528Z,95417.72
2023-02-24T08:04:30.001Z,95402.63
2023-02-24T08:06:58.818Z,95402.56
2023-02-24T08:09:45.902Z,95399.94
2023-02-24T08:12:18.302Z,95396.97
2023-02-24T08:14:50.731Z,95391.13
2023-02-24T08:17:26.521Z,95368.00
2023-02-24T08:20:13.021Z,95370.88
2023-02-24T08:22:46.589Z,95401.88
2023-02-24T08:25:18.313Z,95395.84
2023-02-24T08:28:05.997Z,95392.06
2023-02-24T08:30:44.897Z,95362.88
2023-02-24T08:33:18.353Z,95355.47
2023-02-24T08:35:45.401Z,95356.06
2023-02-24T08:38:18.571Z,95378.59
2023-02-24T08:40:51.551Z,95385.66
2023-02-24T08:43:30.101Z,95395.41
2023-02-24T08:46:18.699Z,95368.63
2023-02-24T08:48:55.448Z,95386.75
2023-02-24T08:51:29.719Z,95390.44
2023-02-24T08:53:59.617Z,95393.34
2023-02-24T08:56:29.635Z,95392.91
2023-02-24T08:59:05.698Z,95363.09
2023-02-24T09:01:37.164Z,95387.06
2023-02-24T09:04:13.084Z,95392.56
2023-02-24T09:06:47.563Z,95393.47
2023-02-24T09:09:17.624Z,95390.22
2023-02-24T09:11:56.351Z,95395.00
2023-02-24T09:14:36.355Z,95382.34
2023-02-24T09:17:06.457Z,95385.34
2023-02-24T09:19:46.554Z,95381.94
2023-02-24T09:22:57.732Z,95387.34
2023-02-24T09:25:26.043Z,95384.56
2023-02-24T09:28:17.571Z,95339.06
2023-02-24T09:30:51.338Z,95363.78
2023-02-24T09:33:27.449Z,95372.31
2023-02-24T09:36:10.821Z,95367.94
2023-02-24T09:38:57.309Z,95368.75
2023-02-24T09:41:33.432Z,95372.03
2023-02-24T09:44:07.620Z,95359.19
2023-02-24T09:46:40.826Z,95344.59
2023-02-24T09:49:17.214Z,95365.53
2023-02-24T09:51:44.807Z,95352.13
2023-02-24T09:54:18.841Z,95343.16
2023-02-24T09:57:08.358Z,95351.69
2023-02-24T10:00:16.247Z,95365.06
2023-02-24T10:03:00.166Z,95319.47
2023-02-24T10:05:59.357Z,95360.84
2023-02-24T10:08:38.234Z,95352.78
2023-02-24T10:11:08.360Z,95315.22
2023-02-24T10:13:52.995Z,95330.56
2023-02-24T10:16:24.061Z,95317.38
2023-02-24T10:19:17.651Z,95313.81
2023-02-24T10:22:23.046Z,95330.94
2023-02-24T10:25:01.450Z,95312.69
2023-02-24T10:28:06.875Z,95316.69
2023-02-24T10:31:10.255Z,95304.97
2023-02-24T10:33:46.348Z,95294.91
2023-02-24T10:36:18.170Z,95318.84
2023-02-24T10:38:46.033Z,95311.00
2023-02-24T10:41:14.701Z,95293.69
2023-02-24T10:43:53.875Z,95293.69
2023-02-24T10:46:39.993Z,95304.66
2023-02-24T10:49:15.718Z,95266.66
2023-02-24T10:51:47.690Z,95279.41
2023-02-24T10:54:34.011Z,95281.94
2023-02-24T10:57:29.637Z,95265.97
2023-02-24T11:00:17.754Z,95246.63
2023-02-24T11:02:57.636Z,95264.13
2023-02-24T11:05:37.951Z,95249.34
2023-02-24T11:08:07.767Z,95251.97
2023-02-24T11:10:52.948Z,95219.13
2023-02-24T11:13:39.320Z,95243.06
2023-02-24T11:16:27.577Z,95242.31
2023-02-24T11:18:55.715Z,95233.50
2023-02-24T11:21:26.185Z,95231.16
2023-02-24T11:24:05.441Z,95229.63
2023-02-24T11:26:36.979Z,95229.41
2023-02-24T11:29:17.463Z,95211.78
2023-02-24T11:32:09.086Z,95208.56
2023-02-24T11:34:49.535Z,95195.88
2023-02-24T11:37:43.413Z,95179.66
2023-02-24T11:40:10.568Z,95178.38
2023-02-24T11:43:07.426Z,95174.06
2023-02-24T11:45:47.241Z,95165.66
2023-02-24T11:48:25.228Z,95129.78
2023-02-24T11:51:13.834Z,95165.03
2023-02-24T11:53:51.480Z,95158.84
2023-02-24T11:56:20.926Z,95159.34
2023-02-24T11:59:06.276Z,95154.13
2023-02-24T12:01:40.997Z,95146.97
2023-02-24T12:04:10.600Z,95142.41
2023-02-24T12:06:53.484Z,95107.91
2023-02-24T12:09:24.431Z,95111.09
2023-02-24T12:12:00.935Z,95132.78
2023-02-24T12:14:34.647Z,95135.78
2023-02-24T12:17:35.050Z,95119.00
2023-02-24T12:20:47.683Z,95110.09
2023-02-24T12:23:34.534Z,95090.69
2023-02-24T12:26:25.557Z,95109.06
2023-02-24T12:29:24.580Z,95099.97
2023-02-24T12:32:01.785Z,95102.53
2023-02-24T12:34:31.546Z,95095.72
2023-02-24T12:37:13.098Z,95092.22
2023-02-24T12:39:56.422Z,95046.03
2023-02-24T12:42:46.751Z,95082.84
2023-02-24T12:45:22.028Z,95054.66
2023-02-24T12:48:19.036Z,95090.59
2023-02-24T12:50:59.385Z,95048.63
2023-02-24T12:53:29.068Z,95074.75
2023-02-24T12:56:15.838Z,95057.13
2023-02-24T12:58:45.990Z,95044.84
2023-02-24T13:01:32.685Z,95068.09
2023-02-24T13:04:21.918Z,95060.56
2023-02-24T13:07:07.248Z,95059.44
2023-02-24T13:09:38.801Z,95052.13
2023-02-24T13:12:43.388Z,95045.38
2023-02-24T13:15:21.967Z,95031.75
2023-02-24T13:17:51.832Z,95031.31
2023-02-24T13:20:38.477Z,95029.91
2023-02-24T13:23:20.186Z,95026.03
2023-02-24T13:25:55.583Z,95025.09
2023-02-24T13:28:33.316Z,94990.25
2023-02-24T13:31:11.802Z,95000.16
2023-02-24T13:33:43.508Z,94972.81
2023-02-24T13:36:23.681Z,95011.09
2023-02-24T13:39:03.793Z,95000.25
2023-02-24T13:41:30.361Z,94996.69
2023-02-24T13:43:57.935Z,95000.34
2023-02-24T13:46:28.326Z,94989.22
2023-02-24T13:49:02.999Z,94993.84
2023-02-24T13:51:41.963Z,94982.50
2023-02-24T13:54:08.795Z,94980.22
2023-02-24T13:56:56.301Z,94975.22
2023-02-24T13:59:29.160Z,94971.22
2023-02-24T14:01:58.855Z,94977.84
2023-02-24T14:04:31.785Z,94962.13
2023-02-24T14:07:03.643Z,94967.22
2023-02-24T14:09:46.360Z,94963.06
2023-02-24T14:12:18.470Z,94954.13
2023-02-24T14:14:46.488Z,94936.56
2023-02-24T14:17:26.338Z,94949.31
2023-02-24T14:19:52.910Z,94947.19
2023-02-24T14:22:21.373Z,94954.81
2023-02-24T14:24:48.404Z,94912.63
2023-02-24T14:27:24.427Z,94910.88
2023-02-24T14:29:52.817Z,94948.72
2023-02-24T14:32:22.394Z,94935.59
2023-02-24T14:34:50.021Z,94903.50
2023-02-24T14:37:17.388Z,94911.38
2023-02-24T14:39:55.178Z,94923.44
2023-02-24T14:42:22.213Z,94919.19
2023-02-24T14:44:59.492Z,94915.03
2023-02-24T14:47:28.879Z,94918.94
2023-02-24T14:50:02.336Z,94888.91
2023-02-24T14:52:35.233Z,94903.94
2023-02-24T14:55:04.747Z,94901.06
2023-02-24T14:57:38.180Z,94902.50
2023-02-24T15:00:30.418Z,94897.66
2023-02-24T15:03:17.454Z,94884.28
2023-02-24T15:05:48.579Z,94859.53
2023-02-24T15:08:27.285Z,94891.19
2023-02-24T15:10:54.063Z,94845.59
2023-02-24T15:13:43.473Z,94851.50
2023-02-24T15:16:37.360Z,94876.19
2023-02-24T15:19:04.618Z,94834.94
2023-02-24T15:21:40.462Z,94860.44
2023-02-24T15:24:25.063Z,94819.16
2023-02-24T15:26:57.496Z,94846.41
2023-02-24T15:29:27.652Z,94826.97
2023-02-24T15:31:56.722Z,94818.81
2023-02-24T15:34:29.740Z,94836.13
2023-02-24T15:37:01.195Z,94830.44
2023-02-24T15:39:31.261Z,94837.50
2023-02-24T15:42:17.953Z,94837.00
2023-02-24T15:44:53.665Z,94840.94
2023-02-24T15:47:32.479Z,94818.31
2023-02-24T15:49:59.358Z,94838.50
2023-02-24T15:52:28.649Z,94841.28
2023-02-24T15:54:57.884Z,94836.38
2023-02-24T15:57:25.150Z,94820.28
2023-02-24T15:59:51.914Z,94826.69
2023-02-24T16:02:21.681Z,94823.91
2023-02-24T16:04:49.699Z,94817.81
2023-02-24T16:07:20.820Z,94796.19
2023-02-24T16:09:49.745Z,94813.13
2023-02-24T16:12:24.063Z,94816.03
2023-02-24T16:14:55.798Z,94823.22
2023-02-24T16:17:33.081Z,94823.91
2023-02-24T16:20:00.448Z,94790.41
2023-02-24T16:22:28.310Z,94790.50
2023-02-24T16:24:55.075Z,94814.25
2023-02-24T16:27:23.448Z,94813.88
2023-02-24T16:29:51.086Z,94815.31
2023-02-24T16:32:25.741Z,94795.66
2023-02-24T16:34:53.179Z,94798.19
2023-02-24T16:37:22.876Z,94814.06
2023-02-24T16:39:49.777Z,94778.28
2023-02-24T16:42:17.522Z,94791.22
2023-02-24T16:44:44.669Z,94815.69
2023-02-24T16:47:20.515Z,94812.88
2023-02-24T16:49:47.342Z,94767.09
2023-02-24T16:52:18.996Z,94808.06
2023-02-24T16:54:47.667Z,94794.09
2023-02-24T16:57:14.258Z,94781.38
2023-02-24T16:59:40.924Z,94800.53
2023-02-24T17:02:18.128Z,94802.44
2023-02-24T17:04:44.718Z,94812.66
2023-02-24T17:07:11.375Z,94806.44
2023-02-24T17:09:37.935Z,94795.28
2023-02-24T17:12:04.902Z,94775.88
2023-02-24T17:14:31.528Z,94764.81
2023-02-24T17:17:00.990Z,94771.69
2023-02-24T17:19:27.631Z,94765.69
2023-02-24T17:21:54.323Z,94793.06
2023-02-24T17:24:21.034Z,94780.25
2023-02-24T17:26:47.740Z,94773.19
2023-02-24T17:29:14.770Z,94762.88
2023-02-24T17:31:42.262Z,94728.19
2023-02-24T17:34:09.941Z,94772.38
2023-02-24T17:36:36.535Z,94794.16
2023-02-24T17:39:03.252Z,94779.34
2023-02-24T17:41:29.988Z,94756.78
2023-02-24T17:43:56.597Z,94748.31
2023-02-24T17:46:23.507Z,94749.06
2023-02-24T17:48:50.319Z,94783.63
2023-02-24T17:51:18.808Z,94768.25
2023-02-24T17:53:45.842Z,94775.69
2023-02-24T17:56:12.651Z,94770.34
2023-02-24T17:58:40.067Z,94759.22
2023-02-24T18:01:07.528Z,94779.59
2023-02-24T18:03:36.175Z,94775.03
2023-02-24T18:06:06.391Z,94782.56
2023-02-24T18:08:34.362Z,94773.31
2023-02-24T18:11:01.369Z,94759.44
2023-02-24T18:13:30.250Z,94780.47
2023-02-24T18:15:57.525Z,94758.88
2023-02-24T18:18:25.484Z,94743.59
2023-02-24T18:20:52.298Z,94764.34
2023-02-24T18:23:19.458Z,94726.81
2023-02-24T18:25:46.075Z,94736.41
2023-02-24T18:28:12.678Z,94763.13
2023-02-24T18:30:39.903Z,94759.44
2023-02-24T18:33:06.749Z,94735.97
2023-02-24T18:35:34.064Z,94737.84
2023-02-24T18:38:00.729Z,94766.31
2023-02-24T18:40:28.007Z,94735.03
2023-02-24T18:42:55.454Z,94748.63
2023-02-24T18:45:23.943Z,94766.72
2023-02-24T18:47:51.558Z,94503.81
2023-02-24T18:50:18.968Z,94761.41
2023-02-24T18:52:45.618Z,94743.16
2023-02-24T18:55:12.210Z,94690.72
2023-02-24T18:57:40.144Z,94745.56
2023-02-24T19:00:07.377Z,94770.19
2023-02-24T19:02:34.057Z,94786.69
2023-02-24T19:05:00.701Z,94750.81
2023-02-24T19:07:27.404Z,94737.59
2023-02-24T19:09:54.118Z,94753.28
2023-02-24T19:12:21.402Z,94743.13
2023-02-24T19:14:52.252Z,94766.25
2023-02-24T19:17:20.201Z,94757.75
2023-02-24T19:19:46.831Z,94756.56
2023-02-24T19:22:13.523Z,94780.13
2023-02-24T19:24:40.233Z,94768.97
2023-02-24T19:27:08.682Z,94761.03
2023-02-24T19:29:35.637Z,94734.75
2023-02-24T19:32:02.557Z,94755.06
2023-02-24T19:34:29.354Z,94766.63
2023-02-24T19:36:55.968Z,94751.22
2023-02-24T19:39:22.690Z,94763.44
2023-02-24T19:41:49.887Z,94753.63
2023-02-24T19:44:16.904Z,94737.88
2023-02-24T19:46:43.834Z,94737.81
2023-02-24T19:49:10.509Z,94777.63
2023-02-24T19:51:37.257Z,94748.09
2023-02-24T19:54:05.907Z,94773.66
2023-02-24T19:56:35.518Z,94765.38
2023-02-24T19:59:03.161Z,94779.47
2023-02-24T20:01:30.577Z,94734.00
2023-02-24T20:03:59.829Z,94777.78
2023-02-24T20:06:33.946Z,94766.31
2023-02-24T20:09:01.541Z,94779.63
2023-02-24T20:11:29.864Z,94768.78
2023-02-24T20:13:56.564Z,94760.06
2023-02-24T20:16:25.261Z,94747.66
2023-02-24T20:18:55.184Z,94776.00
2023-02-24T20:21:21.983Z,94756.81
2023-02-24T20:23:48.708Z,94726.50
2023-02-24T20:26:16.352Z,94764.78
2023-02-24T20:28:47.331Z,94764.47
2023-02-24T20:31:18.545Z,94762.03
2023-02-24T20:33:47.103Z,94760.19
2023-02-24T20:36:20.330Z,94761.56
2023-02-24T20:38:47.666Z,94757.41
2023-02-24T20:41:15.083Z,94761.59
2023-02-24T20:43:41.755Z,94755.75
2023-02-24T20:46:24.687Z,94742.75
2023-02-24T20:48:53.181Z,94747.78
2023-02-24T20:51:20.152Z,94730.19
2023-02-24T20:53:56.594Z,94750.88
2023-02-24T20:56:29.111Z,94729.56
2023-02-24T20:59:02.388Z,94754.38
2023-02-24T21:01:30.388Z,94749.63
2023-02-24T21:03:57.422Z,94752.06
2023-02-24T21:06:24.971Z,94727.13
2023-02-24T21:08:53.328Z,94726.19
2023-02-24T21:11:21.844Z,94725.75
2023-02-24T21:13:50.186Z,94709.19
2023-02-24T21:16:18.239Z,94745.81
2023-02-24T21:18:47.336Z,94744.13
2023-02-24T21:21:15.362Z,94718.84
2023-02-24T21:23:43.521Z,94735.84
2023-02-24T21:26:11.156Z,94731.06
2023-02-24T21:28:38.671Z,94736.91
2023-02-24T21:31:11.496Z,94707.63
2023-02-24T21:33:41.688Z,94741.03
2023-02-24T21:36:13.587Z,94737.06
2023-02-24T21:38:41.335Z,94721.59
2023-02-24T21:41:13.532Z,94734.75
2023-02-24T21:43:40.484Z,94739.03
2023-02-24T21:46:09.105Z,94694.16
2023-02-24T21:48:37.073Z,94735.81
2023-02-24T21:51:06.771Z,94693.69
2023-02-24T21:53:35.699Z,94743.72
2023-02-24T21:56:03.715Z,94742.19
2023-02-24T21:58:32.393Z,94724.00
2023-02-24T22:01:07.998Z,94720.31
2023-02-24T22:03:34.704Z,94743.72
2023-02-24T22:06:01.586Z,94718.19
2023-02-24T22:08:28.814Z,94719.38
2023-02-24T22:10:59.848Z,94731.22
2023-02-24T22:13:26.926Z,94728.91
2023-02-24T22:15:53.831Z,94735.63
2023-02-24T22:18:21.250Z,94728.59
2023-02-24T22:20:48.171Z,94720.00
2023-02-24T22:23:15.104Z,94707.44
2023-02-24T22:25:41.728Z,94698.59
2023-02-24T22:28:08.419Z,94708.06
2023-02-24T22:30:35.233Z,94715.44
2023-02-24T22:33:01.914Z,94714.97
2023-02-24T22:35:28.537Z,94699.34
2023-02-24T22:37:55.305Z,94712.69
2023-02-24T22:40:21.937Z,94716.19
2023-02-24T22:42:48.617Z,94711.63
2023-02-24T22:45:15.394Z,94702.88
2023-02-24T22:47:42.034Z,94712.84
2023-02-24T22:50:09.671Z,94715.75
2023-02-24T22:52:36.345Z,94678.25
2023-02-24T22:55:03.022Z,94714.06
2023-02-24T22:57:32.702Z,94691.72
2023-02-24T22:59:59.742Z,94685.59
2023-02-24T23:02:27.424Z,94693.44
2023-02-24T23:04:54.073Z,94682.38
2023-02-24T23:07:20.717Z,94677.19
2023-02-24T23:09:52.792Z,94683.16
2023-02-24T23:12:20.807Z,94700.63
2023-02-24T23:14:47.469Z,94674.47
2023-02-24T23:17:14.131Z,94684.69
2023-02-24T23:19:40.744Z,94713.63
2023-02-24T23:22:08.320Z,94713.03
2023-02-24T23:24:36.104Z,94713.66
2023-02-24T23:27:03.005Z,94705.66
2023-02-24T23:29:30.867Z,94717.16
2023-02-24T23:31:58.181Z,94717.91
2023-02-24T23:34:25.156Z,94723.72
2023-02-24T23:36:52.158Z,94685.16
2023-02-24T23:39:23.096Z,94719.44
2023-02-24T23:41:50.379Z,94717.13
2023-02-24T23:44:17.019Z,94717.13
2023-02-24T23:46:43.987Z,94711.63
2023-02-24T23:49:10.596Z,94711.19
2023-02-24T23:51:47.946Z,94638.72
2023-02-24T23:54:17.024Z,94712.53
2023-02-24T23:56:43.759Z,94711.44
2023-02-24T23:59:10.372Z,94672.13
